M I D A S
Marine Information and Data Acquisition System
Tripno 2199 of the Zeeleeuw from 2011-10-17 06:50:59 to 2011-10-17 16:44:45
Back to CruiseResearch ActivitiesStationsMapUnderway DataData graphs

EquipmentUnitsComment
TimeDGPSUTC
LatitudeDGPSDM.mWGS84
LongitudeDGPSDM.mWGS84
HeadingGyrodeg 
SOGDGPSknotsSpeed over ground
COGDGPSdegCourse over ground
DepthEcho soundermeters200 kHz
Missing or incorrect values are displayed as -999
Navigation data collected by the RV Zeeleeuw from 2011-10-17 06:19:01 to 2011-10-17 16:52:47
                                                                                    Next 1000 lines
Time Latitude Longitude Heading SOG COG Depth
2011-10-17 06:19:10 51°13.634 2°56.016 126.1 0.1 253 8.1
2011-10-17 06:19:15 51°13.635 2°56.016 126.4 0.1 59 7.8
2011-10-17 06:19:21 51°13.635 2°56.016 126.7 0.1 163 7.8
2011-10-17 06:19:25 51°13.635 2°56.016 126.8 0.1 65 8.1
2011-10-17 06:19:30 51°13.635 2°56.017 126.8 -999 16 7.8
2011-10-17 06:19:35 51°13.635 2°56.017 126.8 0.1 35 7.9
2011-10-17 06:19:40 51°13.635 2°56.017 126.4 -999 60 7.8
2011-10-17 06:19:45 51°13.635 2°56.016 126.1 -999 269 7.9
2011-10-17 06:19:50 51°13.636 2°56.017 126 -999 233 7.8
2011-10-17 06:19:55 51°13.636 2°56.017 126 -999 234 7.8
2011-10-17 06:20:00 51°13.636 2°56.017 126.1 -999 269 7.8
2011-10-17 06:20:05 51°13.636 2°56.017 126.3 -999 236 7.8
2011-10-17 06:20:09 51°13.636 2°56.017 126.5 -999 230 -999
2011-10-17 06:20:15 51°13.636 2°56.017 126.6 -999 71 -999
2011-10-17 06:20:21 51°13.635 2°56.016 126.7 -999 48 -999
2011-10-17 06:20:26 51°13.635 2°56.016 126.7 -999 63 7.8
2011-10-17 06:20:31 51°13.635 2°56.017 126.7 -999 70 8.1
2011-10-17 06:20:36 51°13.635 2°56.017 126.6 -999 43 5.8
2011-10-17 06:20:41 51°13.635 2°56.017 126.4 -999 239 7.8
2011-10-17 06:20:46 51°13.635 2°56.018 126.3 -999 245 7.8
2011-10-17 06:20:51 51°13.636 2°56.018 126.2 -999 256 -999
2011-10-17 06:20:56 51°13.636 2°56.018 126.3 -999 233 8.1
2011-10-17 06:21:01 51°13.636 2°56.018 126.4 -999 198 7.8
2011-10-17 06:21:06 51°13.636 2°56.018 126.4 -999 110 7.8
2011-10-17 06:21:11 51°13.636 2°56.017 126.4 -999 303 8
2011-10-17 06:21:16 51°13.636 2°56.017 126.4 -999 304 7.8
2011-10-17 06:21:21 51°13.636 2°56.018 126.4 -999 329 -999
2011-10-17 06:21:26 51°13.636 2°56.018 126.4 -999 36 7.8
2011-10-17 06:21:31 51°13.636 2°56.018 126.4 -999 61 7.8
2011-10-17 06:21:36 51°13.636 2°56.018 126.4 -999 69 -999
2011-10-17 06:21:41 51°13.636 2°56.018 126.2 -999 59 -999
2011-10-17 06:21:46 51°13.636 2°56.017 125.9 -999 44 7.8
2011-10-17 06:21:51 51°13.636 2°56.017 125.8 -999 68 7.8
2011-10-17 06:21:56 51°13.636 2°56.018 125.6 -999 130 7.8
2011-10-17 06:22:01 51°13.636 2°56.017 125.3 -999 116 7.8
2011-10-17 06:22:06 51°13.636 2°56.017 125.1 -999 116 7.9
2011-10-17 06:22:11 51°13.636 2°56.017 124.9 -999 68 7.9
2011-10-17 06:22:16 51°13.636 2°56.017 124.6 -999 35 7.8
2011-10-17 06:22:21 51°13.636 2°56.017 124.3 -999 343 7.8
2011-10-17 06:22:25 51°13.636 2°56.017 124.1 -999 301 7.8
2011-10-17 06:22:30 51°13.636 2°56.017 123.7 0.1 288 7.8
2011-10-17 06:22:36 51°13.636 2°56.017 123.5 -999 326 7.8
2011-10-17 06:22:41 51°13.636 2°56.017 123.5 -999 307 8.1
2011-10-17 06:22:45 51°13.636 2°56.017 123.5 0.1 307 7.8
2011-10-17 06:22:50 51°13.636 2°56.017 123.4 0.1 305 7.8
2011-10-17 06:22:56 51°13.636 2°56.016 123.4 0.1 309 7.8
2011-10-17 06:23:01 51°13.636 2°56.016 123.4 0.1 302 7.9
2011-10-17 06:23:05 51°13.636 2°56.016 123.4 0.1 309 7.8
2011-10-17 06:23:10 51°13.636 2°56.016 123.3 0.1 302 7.8
2011-10-17 06:23:15 51°13.637 2°56.016 123.3 0.2 308 7.9
2011-10-17 06:23:20 51°13.637 2°56.015 123.2 0.2 300 8
2011-10-17 06:23:25 51°13.637 2°56.015 123.2 0.2 308 8
2011-10-17 06:23:30 51°13.637 2°56.015 123.2 0.1 303 8.1
2011-10-17 06:23:35 51°13.637 2°56.014 123.1 0.1 300 8.1
2011-10-17 06:23:40 51°13.637 2°56.014 123.1 0.1 265 8
2011-10-17 06:23:45 51°13.637 2°56.014 123.5 -999 276 8.1
2011-10-17 06:23:49 51°13.637 2°56.014 124.2 0.1 283 7.9
2011-10-17 06:23:54 51°13.637 2°56.014 124.9 -999 292 7.9
2011-10-17 06:23:59 51°13.637 2°56.014 125.5 -999 327 8
2011-10-17 06:24:04 51°13.637 2°56.014 125.8 -999 161 8.1
2011-10-17 06:24:09 51°13.637 2°56.014 126.4 -999 134 7.9
2011-10-17 06:24:14 51°13.637 2°56.013 126.4 0.1 183 7.9
2011-10-17 06:24:19 51°13.637 2°56.014 126.6 0.1 116 8
2011-10-17 06:24:24 51°13.637 2°56.014 126.7 -999 145 7.9
2011-10-17 06:24:29 51°13.637 2°56.014 126.8 -999 106 5.9
2011-10-17 06:24:33 51°13.637 2°56.014 126.8 -999 135 8
2011-10-17 06:24:39 51°13.637 2°56.014 126.8 -999 86 8
2011-10-17 06:24:44 51°13.637 2°56.014 126.7 -999 301 5.9
2011-10-17 06:24:49 51°13.637 2°56.014 126.4 -999 333 7.9
2011-10-17 06:24:53 51°13.637 2°56.014 126.2 -999 279 8
2011-10-17 06:24:58 51°13.637 2°56.014 126 -999 333 5.9
2011-10-17 06:25:03 51°13.637 2°56.014 125.8 -999 216 5.9
2011-10-17 06:25:08 51°13.637 2°56.014 125.7 -999 111 7.9
2011-10-17 06:25:13 51°13.637 2°56.014 125.7 0.1 130 7.9
2011-10-17 06:25:18 51°13.637 2°56.014 125.7 0.1 117 8
2011-10-17 06:25:23 51°13.637 2°56.015 125.7 0.1 109 8
2011-10-17 06:25:28 51°13.637 2°56.015 125.5 0.1 77 8
2011-10-17 06:25:33 51°13.637 2°56.015 125.2 0.1 64 7.9
2011-10-17 06:25:38 51°13.637 2°56.015 124.6 0.1 25 7.9
2011-10-17 06:25:43 51°13.637 2°56.015 124.1 -999 32 7.9
2011-10-17 06:25:48 51°13.637 2°56.015 123.5 -999 341 7.9
2011-10-17 06:25:53 51°13.637 2°56.015 123 -999 300 8
2011-10-17 06:25:57 51°13.637 2°56.015 122.7 -999 281 8
2011-10-17 06:26:03 51°13.637 2°56.015 122.7 -999 203 8
2011-10-17 06:26:08 51°13.637 2°56.015 122.9 -999 188 8
2011-10-17 06:26:13 51°13.637 2°56.015 123.6 0.1 220 8
2011-10-17 06:26:17 51°13.637 2°56.015 124.2 0.1 148 7.9
2011-10-17 06:26:22 51°13.637 2°56.015 124.9 0.1 127 8
2011-10-17 06:26:28 51°13.637 2°56.015 125.7 0.1 68 7.9
2011-10-17 06:26:33 51°13.637 2°56.015 126.1 0.1 43 8
2011-10-17 06:26:38 51°13.637 2°56.015 126.2 -999 265 7.9
2011-10-17 06:26:43 51°13.637 2°56.015 125.9 -999 73 8
2011-10-17 06:26:48 51°13.637 2°56.016 125.8 -999 177 7.9
2011-10-17 06:26:53 51°13.637 2°56.016 125.7 -999 148 7.9
2011-10-17 06:26:58 51°13.637 2°56.016 125.7 -999 135 7.9
2011-10-17 06:27:03 51°13.637 2°56.015 125.7 0.1 310 7.9
2011-10-17 06:27:08 51°13.637 2°56.015 125.7 -999 287 7.9
2011-10-17 06:27:13 51°13.637 2°56.015 125.9 -999 259 7.9
2011-10-17 06:27:18 51°13.637 2°56.015 126.2 -999 219 8
2011-10-17 06:27:23 51°13.637 2°56.015 126.4 -999 210 7.9
2011-10-17 06:27:28 51°13.637 2°56.015 126.5 -999 158 8
2011-10-17 06:27:33 51°13.637 2°56.015 126.7 -999 5 8
2011-10-17 06:27:38 51°13.637 2°56.015 126.8 -999 97 7.9
2011-10-17 06:27:43 51°13.637 2°56.015 126.8 -999 63 7.9
2011-10-17 06:27:48 51°13.637 2°56.015 126.6 -999 359 7.9
2011-10-17 06:27:53 51°13.637 2°56.015 126.4 -999 322 8
2011-10-17 06:27:58 51°13.637 2°56.015 126.4 -999 13 7.9
2011-10-17 06:28:03 51°13.637 2°56.015 126.4 -999 300 8
2011-10-17 06:28:08 51°13.637 2°56.016 126.4 -999 281 8
2011-10-17 06:28:13 51°13.637 2°56.016 126.4 -999 128 7.9
2011-10-17 06:28:17 51°13.637 2°56.016 126.4 -999 139 7.9
2011-10-17 06:28:23 51°13.637 2°56.016 126.5 0.1 136 7.9
2011-10-17 06:28:28 51°13.637 2°56.016 126.7 -999 104 7.9
2011-10-17 06:28:33 51°13.637 2°56.016 126.8 -999 14 8
2011-10-17 06:28:37 51°13.637 2°56.016 126.9 -999 47 5.8
2011-10-17 06:28:43 51°13.637 2°56.016 126.8 -999 38 5.9
2011-10-17 06:28:48 51°13.637 2°56.016 126.6 -999 46 7.9
2011-10-17 06:28:53 51°13.637 2°56.016 126.5 -999 68 8
2011-10-17 06:28:58 51°13.637 2°56.016 126.4 -999 295 5.9
2011-10-17 06:29:03 51°13.637 2°56.016 126.4 -999 254 7.9
2011-10-17 06:29:08 51°13.637 2°56.016 126.4 -999 200 7.9
2011-10-17 06:29:13 51°13.637 2°56.016 126.4 -999 185 7.9
2011-10-17 06:29:18 51°13.637 2°56.016 126.4 0.1 3 7.9
2011-10-17 06:29:23 51°13.637 2°56.016 126.5 0.1 356 8
2011-10-17 06:29:28 51°13.637 2°56.016 126.6 -999 208 8
2011-10-17 06:29:33 51°13.637 2°56.016 126.7 -999 273 5.9
2011-10-17 06:29:38 51°13.637 2°56.016 126.8 -999 186 7.9
2011-10-17 06:29:43 51°13.637 2°56.016 126.8 -999 105 7.9
2011-10-17 06:29:48 51°13.637 2°56.016 126.8 -999 153 7.9
2011-10-17 06:29:53 51°13.637 2°56.016 126.8 -999 127 5.9
2011-10-17 06:29:58 51°13.637 2°56.016 126.8 -999 15 8
2011-10-17 06:30:03 51°13.637 2°56.016 126.8 -999 321 8
2011-10-17 06:30:08 51°13.637 2°56.016 126.8 -999 215 7.8
2011-10-17 06:30:13 51°13.637 2°56.016 126.8 -999 169 8
2011-10-17 06:30:17 51°13.637 2°56.016 126.8 -999 3 8
2011-10-17 06:30:23 51°13.637 2°56.016 126.8 -999 297 5.9
2011-10-17 06:30:28 51°13.637 2°56.016 126.9 -999 173 7.9
2011-10-17 06:30:33 51°13.637 2°56.016 126.9 -999 177 7.8
2011-10-17 06:30:38 51°13.637 2°56.016 126.9 -999 278 7.9
2011-10-17 06:30:43 51°13.637 2°56.016 126.8 -999 185 7.9
2011-10-17 06:30:48 51°13.637 2°56.016 126.8 -999 272 7.9
2011-10-17 06:30:53 51°13.637 2°56.016 126.8 -999 236 7.9
2011-10-17 06:30:58 51°13.637 2°56.016 126.8 -999 278 7.8
2011-10-17 06:31:03 51°13.637 2°56.016 126.8 -999 317 7.8
2011-10-17 06:31:08 51°13.637 2°56.016 126.8 0.1 182 5.8
2011-10-17 06:31:13 51°13.637 2°56.016 126.9 -999 257 7.8
2011-10-17 06:31:17 51°13.637 2°56.015 126.9 -999 147 5.8
2011-10-17 06:31:23 51°13.637 2°56.015 126.9 -999 163 5.8
2011-10-17 06:31:28 51°13.637 2°56.016 126.9 -999 70 7.9
2011-10-17 06:31:33 51°13.637 2°56.016 126.9 -999 144 7.9
2011-10-17 06:31:38 51°13.637 2°56.016 126.9 -999 84 7.9
2011-10-17 06:31:43 51°13.637 2°56.016 126.7 -999 66 7.8
2011-10-17 06:31:48 51°13.637 2°56.016 126.7 -999 170 7.9
2011-10-17 06:31:53 51°13.637 2°56.016 126.6 -999 237 7.8
2011-10-17 06:31:58 51°13.638 2°56.016 126.6 -999 189 7.8
2011-10-17 06:32:03 51°13.638 2°56.016 126.5 -999 130 5.8
2011-10-17 06:32:08 51°13.638 2°56.016 126.5 -999 167 7.8
2011-10-17 06:32:13 51°13.638 2°56.016 126.5 -999 172 7.8
2011-10-17 06:32:18 51°13.638 2°56.016 126.5 -999 219 7.8
2011-10-17 06:32:23 51°13.638 2°56.016 126.5 -999 171 7.8
2011-10-17 06:32:28 51°13.638 2°56.016 126.5 -999 155 7.8
2011-10-17 06:32:33 51°13.638 2°56.016 126.5 -999 167 7.8
2011-10-17 06:32:38 51°13.638 2°56.016 126.5 -999 192 7.9
2011-10-17 06:32:43 51°13.638 2°56.016 126.5 -999 207 7.8
2011-10-17 06:32:48 51°13.638 2°56.016 126.5 -999 195 5.9
2011-10-17 06:32:53 51°13.638 2°56.016 126.5 -999 175 7.8
2011-10-17 06:32:58 51°13.638 2°56.016 126.5 -999 169 7.8
2011-10-17 06:33:03 51°13.638 2°56.016 126.5 -999 20 7.8
2011-10-17 06:33:08 51°13.638 2°56.016 126.5 -999 175 7.8
2011-10-17 06:33:13 51°13.638 2°56.016 126.5 -999 177 7.8
2011-10-17 06:33:18 51°13.638 2°56.016 126.5 -999 76 5.8
2011-10-17 06:33:23 51°13.637 2°56.016 126.5 -999 34 7.9
2011-10-17 06:33:28 51°13.637 2°56.016 126.4 -999 43 -999
2011-10-17 06:33:33 51°13.637 2°56.016 126.4 -999 29 7.8
2011-10-17 06:33:38 51°13.637 2°56.016 126.2 -999 136 7.8
2011-10-17 06:33:43 51°13.637 2°56.016 126.1 -999 123 7.8
2011-10-17 06:33:48 51°13.637 2°56.016 126 -999 189 5.9
2011-10-17 06:33:53 51°13.637 2°56.016 125.9 -999 192 7.8
2011-10-17 06:33:58 51°13.637 2°56.016 125.9 -999 223 7.8
2011-10-17 06:34:03 51°13.637 2°56.016 125.9 -999 196 7.9
2011-10-17 06:34:08 51°13.637 2°56.016 125.9 -999 211 7.9
2011-10-17 06:34:13 51°13.637 2°56.016 126 -999 232 7.8
2011-10-17 06:34:18 51°13.637 2°56.016 126 -999 213 7.9
2011-10-17 06:34:23 51°13.637 2°56.016 126.1 -999 190 7.9
2011-10-17 06:34:28 51°13.637 2°56.016 126.1 -999 166 7.8
2011-10-17 06:34:33 51°13.637 2°56.015 126.1 -999 158 7.8
2011-10-17 06:34:37 51°13.637 2°56.015 126.1 -999 199 7.9
2011-10-17 06:34:43 51°13.637 2°56.015 126.2 -999 177 7.9
2011-10-17 06:34:48 51°13.637 2°56.015 126.2 -999 339 7.9
2011-10-17 06:34:53 51°13.637 2°56.015 126.2 -999 201 7.8
2011-10-17 06:34:58 51°13.637 2°56.015 126.2 -999 56 7.8
2011-10-17 06:35:03 51°13.637 2°56.015 126.2 -999 13 7.8
2011-10-17 06:35:08 51°13.637 2°56.015 126.2 -999 342 7.8
2011-10-17 06:35:13 51°13.638 2°56.015 126.2 -999 335 7.8
2011-10-17 06:35:18 51°13.638 2°56.016 126.2 -999 344 7.8
2011-10-17 06:35:23 51°13.638 2°56.016 126.2 -999 358 7.8
2011-10-17 06:35:28 51°13.638 2°56.016 126.2 -999 268 7.9
2011-10-17 06:35:33 51°13.637 2°56.016 126.2 -999 175 7.8
2011-10-17 06:35:37 51°13.637 2°56.016 126.2 -999 340 7.9
2011-10-17 06:35:43 51°13.637 2°56.016 126.2 -999 181 7.9
2011-10-17 06:35:48 51°13.637 2°56.016 126.2 -999 194 7.9
2011-10-17 06:35:53 51°13.637 2°56.016 126.2 -999 184 5.9
2011-10-17 06:35:58 51°13.637 2°56.016 126.2 -999 22 7.9
2011-10-17 06:36:03 51°13.637 2°56.016 126.2 -999 358 7.9
2011-10-17 06:36:08 51°13.637 2°56.015 126.2 -999 327 5.9
2011-10-17 06:36:13 51°13.637 2°56.015 126.2 -999 187 7.9
2011-10-17 06:36:18 51°13.637 2°56.015 126.2 -999 170 7.9
2011-10-17 06:36:23 51°13.637 2°56.015 126.1 -999 171 7.9
2011-10-17 06:36:28 51°13.637 2°56.015 126.1 -999 182 7.8
2011-10-17 06:36:33 51°13.637 2°56.015 126.1 0.1 191 7.8
2011-10-17 06:36:38 51°13.637 2°56.015 126.1 -999 175 7.8
2011-10-17 06:36:43 51°13.637 2°56.015 126.1 -999 347 7.8
2011-10-17 06:36:48 51°13.637 2°56.016 126.1 -999 345 7.8
2011-10-17 06:36:53 51°13.637 2°56.016 126.1 -999 178 5.8
2011-10-17 06:36:57 51°13.637 2°56.016 126.1 -999 153 7.8
2011-10-17 06:37:03 51°13.637 2°56.016 126.1 -999 342 7.9
2011-10-17 06:37:08 51°13.637 2°56.016 126.1 -999 266 7.8
2011-10-17 06:37:13 51°13.637 2°56.016 126.1 -999 126 7.8
2011-10-17 06:37:17 51°13.637 2°56.016 126 -999 191 7.8
2011-10-17 06:37:23 51°13.637 2°56.016 126 -999 355 7.8
2011-10-17 06:37:28 51°13.637 2°56.016 126 -999 192 7.8
2011-10-17 06:37:33 51°13.637 2°56.016 126 0.1 159 7.8
2011-10-17 06:37:38 51°13.637 2°56.016 126 -999 150 -999
2011-10-17 06:37:43 51°13.637 2°56.016 126 -999 294 7.8
2011-10-17 06:37:48 51°13.637 2°56.016 126 -999 187 7.8
2011-10-17 06:37:53 51°13.637 2°56.016 126 -999 339 5.8
2011-10-17 06:37:58 51°13.637 2°56.016 126 -999 157 7.8
2011-10-17 06:38:03 51°13.637 2°56.015 126 -999 256 7.8
2011-10-17 06:38:08 51°13.636 2°56.015 126 -999 171 7.8
2011-10-17 06:38:13 51°13.636 2°56.015 126 -999 187 7.8
2011-10-17 06:38:18 51°13.636 2°56.016 126 0.1 173 7.8
2011-10-17 06:38:23 51°13.636 2°56.016 126 0.1 161 7.8
2011-10-17 06:38:28 51°13.637 2°56.016 125.9 -999 341 7.7
2011-10-17 06:38:33 51°13.637 2°56.016 125.9 -999 270 7.7
2011-10-17 06:38:38 51°13.637 2°56.016 125.8 -999 183 5.8
2011-10-17 06:38:43 51°13.637 2°56.016 125.8 -999 191 7.8
2011-10-17 06:38:48 51°13.637 2°56.016 125.8 -999 289 7.8
2011-10-17 06:38:53 51°13.637 2°56.016 125.8 -999 205 7.8
2011-10-17 06:38:57 51°13.637 2°56.016 125.8 -999 170 7.8
2011-10-17 06:39:03 51°13.636 2°56.015 125.8 -999 96 7.8
2011-10-17 06:39:08 51°13.634 2°56.013 125.8 -999 180 7.8
2011-10-17 06:39:13 51°13.632 2°56.013 125.8 -999 174 5.8
2011-10-17 06:39:18 51°13.632 2°56.013 125.8 -999 179 7.8
2011-10-17 06:39:23 51°13.632 2°56.013 125.8 -999 214 7.8
2011-10-17 06:39:28 51°13.633 2°56.014 125.8 -999 173 7.8
2011-10-17 06:39:33 51°13.634 2°56.015 125.8 -999 18 7.8
2011-10-17 06:39:37 51°13.635 2°56.015 125.8 -999 190 5.8
2011-10-17 06:39:43 51°13.635 2°56.015 125.8 -999 197 7.8
2011-10-17 06:39:48 51°13.636 2°56.015 125.8 -999 287 7.8
2011-10-17 06:39:53 51°13.636 2°56.016 125.8 -999 161 7.8
2011-10-17 06:39:57 51°13.636 2°56.016 125.8 -999 220 7.8
2011-10-17 06:40:03 51°13.637 2°56.017 125.8 -999 163 5.8
2011-10-17 06:40:08 51°13.637 2°56.017 125.8 -999 194 7.8
2011-10-17 06:40:13 51°13.636 2°56.016 125.8 -999 296 7.8
2011-10-17 06:40:18 51°13.635 2°56.015 125.8 -999 9 7.8
2011-10-17 06:40:22 51°13.634 2°56.014 125.8 -999 272 7.8
2011-10-17 06:40:28 51°13.633 2°56.013 125.8 -999 193 7.8
2011-10-17 06:40:33 51°13.632 2°56.013 125.8 -999 317 7.7
2011-10-17 06:40:38 51°13.633 2°56.013 125.7 -999 343 7.8
2011-10-17 06:40:43 51°13.633 2°56.014 125.7 -999 185 7.8
2011-10-17 06:40:48 51°13.634 2°56.014 125.7 -999 205 7.8
2011-10-17 06:40:53 51°13.635 2°56.014 125.7 -999 315 7.7
2011-10-17 06:40:58 51°13.635 2°56.015 125.7 -999 289 7.7
2011-10-17 06:41:03 51°13.635 2°56.015 125.7 -999 214 7.7
2011-10-17 06:41:08 51°13.635 2°56.015 125.7 -999 193 7.8
2011-10-17 06:41:13 51°13.635 2°56.014 125.7 -999 188 7.8
2011-10-17 06:41:18 51°13.635 2°56.014 125.7 -999 181 7.7
2011-10-17 06:41:23 51°13.634 2°56.014 125.7 -999 202 7.8
2011-10-17 06:41:28 51°13.634 2°56.014 125.7 -999 182 7.8
2011-10-17 06:41:33 51°13.634 2°56.014 125.7 -999 195 7.8
2011-10-17 06:41:38 51°13.634 2°56.014 125.7 -999 188 7.8
2011-10-17 06:41:43 51°13.634 2°56.014 125.7 -999 329 7.8
2011-10-17 06:41:48 51°13.634 2°56.014 125.7 -999 156 7.7
2011-10-17 06:41:53 51°13.634 2°56.014 125.7 -999 104 5.8
2011-10-17 06:41:58 51°13.635 2°56.014 125.7 -999 111 7.7
2011-10-17 06:42:03 51°13.635 2°56.015 125.7 -999 261 7.7
2011-10-17 06:42:08 51°13.635 2°56.015 125.7 -999 281 5.8
2011-10-17 06:42:13 51°13.635 2°56.015 125.7 -999 327 5.8
2011-10-17 06:42:18 51°13.635 2°56.015 125.7 -999 187 7.7
2011-10-17 06:42:23 51°13.635 2°56.015 125.7 -999 199 7.8
2011-10-17 06:42:28 51°13.635 2°56.015 125.7 -999 273 5.8
2011-10-17 06:42:33 51°13.635 2°56.015 125.7 -999 181 7.6
2011-10-17 06:42:38 51°13.635 2°56.014 125.8 -999 198 7.7
2011-10-17 06:42:43 51°13.635 2°56.014 125.9 -999 220 7.7
2011-10-17 06:42:48 51°13.635 2°56.014 125.9 -999 185 7.7
2011-10-17 06:42:53 51°13.635 2°56.014 126 -999 176 7.7
2011-10-17 06:42:58 51°13.636 2°56.014 126 -999 180 7.7
2011-10-17 06:43:03 51°13.636 2°56.014 126 -999 185 7.7
2011-10-17 06:43:08 51°13.636 2°56.014 126 -999 173 7.7
2011-10-17 06:43:13 51°13.636 2°56.015 126 -999 140 7.7
2011-10-17 06:43:18 51°13.636 2°56.015 126 -999 85 7.7
2011-10-17 06:43:23 51°13.636 2°56.015 126 -999 309 7.7
2011-10-17 06:43:28 51°13.636 2°56.015 126 -999 334 7.7
2011-10-17 06:43:33 51°13.636 2°56.015 126 -999 240 5.8
2011-10-17 06:43:37 51°13.636 2°56.015 126 -999 173 7.7
2011-10-17 06:43:43 51°13.636 2°56.015 126 -999 182 7.7
2011-10-17 06:43:48 51°13.636 2°56.015 126 -999 169 5.8
2011-10-17 06:43:53 51°13.636 2°56.015 126 -999 148 7.7
2011-10-17 06:43:58 51°13.636 2°56.015 126 -999 131 7.8
2011-10-17 06:44:03 51°13.636 2°56.015 126 -999 140 7.6
2011-10-17 06:44:08 51°13.636 2°56.015 126 -999 61 7.7
2011-10-17 06:44:13 51°13.637 2°56.016 125.9 0.1 4 7.6
2011-10-17 06:44:18 51°13.637 2°56.016 125.7 -999 1 7.6
2011-10-17 06:44:23 51°13.636 2°56.016 125.7 -999 220 7.6
2011-10-17 06:44:28 51°13.636 2°56.015 125.7 -999 241 5.7
2011-10-17 06:44:33 51°13.636 2°56.015 125.7 -999 258 7.6
2011-10-17 06:44:38 51°13.636 2°56.015 125.7 -999 300 5.8
2011-10-17 06:44:43 51°13.636 2°56.015 125.8 0.1 358 5.8
2011-10-17 06:44:48 51°13.637 2°56.015 126 0.1 352 7.6
2011-10-17 06:44:53 51°13.637 2°56.015 126.2 -999 210 7.7
2011-10-17 06:44:58 51°13.637 2°56.015 126.3 -999 2 7.6
2011-10-17 06:45:03 51°13.637 2°56.015 126.4 -999 130 7.8
2011-10-17 06:45:08 51°13.637 2°56.015 126.4 -999 154 7.7
2011-10-17 06:45:13 51°13.637 2°56.015 126.4 -999 131 7.7
2011-10-17 06:45:18 51°13.637 2°56.015 126.4 -999 160 7.7
2011-10-17 06:45:23 51°13.637 2°56.015 126.3 -999 11 7.7
2011-10-17 06:45:28 51°13.637 2°56.015 126.2 0.1 15 7.6
2011-10-17 06:45:33 51°13.637 2°56.015 126.2 0.1 11 5.7
2011-10-17 06:45:38 51°13.638 2°56.015 126.1 0.1 11 7.6
2011-10-17 06:45:43 51°13.638 2°56.015 126.1 0.1 9 7.7
2011-10-17 06:45:48 51°13.638 2°56.015 126 0.1 16 7.7
2011-10-17 06:45:53 51°13.638 2°56.016 126 0.1 173 7.7
2011-10-17 06:45:57 51°13.638 2°56.016 126 0.1 20 7.6
2011-10-17 06:46:03 51°13.638 2°56.016 125.9 0.1 11 7.6
2011-10-17 06:46:08 51°13.638 2°56.016 125.9 0.1 21 7.7
2011-10-17 06:46:13 51°13.638 2°56.016 125.8 -999 4 7.6
2011-10-17 06:46:18 51°13.638 2°56.016 125.7 0.1 356 7.6
2011-10-17 06:46:23 51°13.638 2°56.016 125.7 -999 20 7.6
2011-10-17 06:46:28 51°13.638 2°56.016 125.7 -999 348 7.7
2011-10-17 06:46:33 51°13.638 2°56.016 125.7 -999 117 7.8
2011-10-17 06:46:37 51°13.639 2°56.016 125.7 -999 332 5.8
2011-10-17 06:46:43 51°13.638 2°56.016 125.7 -999 190 7.7
2011-10-17 06:46:48 51°13.638 2°56.016 125.7 0.1 6 7.8
2011-10-17 06:46:53 51°13.638 2°56.016 125.7 0.1 6 7.8
2011-10-17 06:46:58 51°13.639 2°56.016 125.7 0.1 16 7.8
2011-10-17 06:47:03 51°13.639 2°56.016 125.7 -999 14 7.8
2011-10-17 06:47:08 51°13.638 2°56.016 125.7 0.1 185 7.8
2011-10-17 06:47:13 51°13.639 2°56.016 125.7 0.1 5 7.6
2011-10-17 06:47:18 51°13.639 2°56.016 125.7 0.1 4 7.6
2011-10-17 06:47:23 51°13.639 2°56.016 125.7 0.1 13 7.7
2011-10-17 06:47:28 51°13.639 2°56.016 125.7 0.1 6 7.7
2011-10-17 06:47:33 51°13.639 2°56.016 125.7 -999 10 7.6
2011-10-17 06:47:38 51°13.639 2°56.016 125.7 -999 262 7.7
2011-10-17 06:47:43 51°13.639 2°56.016 125.7 0.1 342 7.6
2011-10-17 06:47:48 51°13.64 2°56.016 125.7 0.1 329 7.6
2011-10-17 06:47:53 51°13.64 2°56.016 125.7 0.1 286 7.7
2011-10-17 06:47:58 51°13.64 2°56.016 125.7 0.1 303 7.6
2011-10-17 06:48:03 51°13.64 2°56.016 125.7 0.1 291 7.6
2011-10-17 06:48:08 51°13.64 2°56.016 125.8 -999 260 7.6
2011-10-17 06:48:13 51°13.64 2°56.016 125.9 -999 198 7.6
2011-10-17 06:48:17 51°13.64 2°56.016 126.2 -999 186 5.7
2011-10-17 06:48:23 51°13.64 2°56.016 126.4 -999 166 7.5
2011-10-17 06:48:28 51°13.64 2°56.016 126.6 -999 70 5.7
2011-10-17 06:48:33 51°13.64 2°56.016 126.8 0.1 140 5.7
2011-10-17 06:48:37 51°13.64 2°56.016 127.1 0.1 130 7.5
2011-10-17 06:48:42 51°13.64 2°56.016 127.2 -999 126 5.7
2011-10-17 06:48:48 51°13.64 2°56.016 127.1 -999 92 7.6
2011-10-17 06:48:53 51°13.64 2°56.016 126.9 0.1 69 7.5
2011-10-17 06:48:58 51°13.64 2°56.017 126.5 0.1 86 7.6
2011-10-17 06:49:03 51°13.64 2°56.017 126.4 0.1 63 7.5
2011-10-17 06:49:08 51°13.64 2°56.017 125.8 -999 80 7.6
2011-10-17 06:49:13 51°13.64 2°56.017 125.3 -999 149 7.6
2011-10-17 06:49:18 51°13.64 2°56.017 124.9 -999 146 7.6
2011-10-17 06:49:23 51°13.64 2°56.017 124.8 -999 29 7.6
2011-10-17 06:49:28 51°13.64 2°56.017 124.6 -999 346 7.6
2011-10-17 06:49:33 51°13.64 2°56.017 124.6 -999 253 7.6
2011-10-17 06:49:38 51°13.64 2°56.017 124.6 -999 265 7.6
2011-10-17 06:49:43 51°13.64 2°56.017 124.8 -999 246 7.6
2011-10-17 06:49:48 51°13.639 2°56.016 124.9 -999 334 7.6
2011-10-17 06:49:53 51°13.639 2°56.016 125.1 -999 264 7.6
2011-10-17 06:49:58 51°13.639 2°56.017 125.3 -999 297 5.7
2011-10-17 06:50:03 51°13.639 2°56.017 125.6 0.1 234 5.7
2011-10-17 06:50:08 51°13.64 2°56.017 125.7 0.1 249 7.7
2011-10-17 06:50:13 51°13.64 2°56.017 126 -999 246 7.7
2011-10-17 06:50:17 51°13.64 2°56.017 126.3 -999 234 7.5
2011-10-17 06:50:23 51°13.641 2°56.017 126.4 0.1 313 7.5
2011-10-17 06:50:28 51°13.641 2°56.017 126.6 0.1 299 7.6
2011-10-17 06:50:33 51°13.641 2°56.017 126.6 0.1 315 7.5
2011-10-17 06:50:37 51°13.641 2°56.017 126.6 0.1 299 7.5
2011-10-17 06:50:43 51°13.641 2°56.017 126.6 0.1 324 7.5
2011-10-17 06:50:48 51°13.641 2°56.017 126.6 -999 331 7.5
2011-10-17 06:50:53 51°13.641 2°56.017 126.6 -999 28 7.5
2011-10-17 06:50:57 51°13.641 2°56.017 126.7 -999 7 7.5
2011-10-17 06:51:02 51°13.641 2°56.017 126.9 0.1 328 5.7
2011-10-17 06:51:08 51°13.64 2°56.016 127 0.1 325 -999
2011-10-17 06:51:13 51°13.64 2°56.016 127 -999 267 7.5
2011-10-17 06:51:17 51°13.64 2°56.016 127 -999 215 7.5
2011-10-17 06:51:23 51°13.639 2°56.016 127 0.1 216 7.5
2011-10-17 06:51:28 51°13.639 2°56.016 127.1 0.1 221 7.5
2011-10-17 06:51:33 51°13.639 2°56.016 127.6 -999 227 7.5
2011-10-17 06:51:38 51°13.639 2°56.016 127.9 0.1 231 7.5
2011-10-17 06:51:43 51°13.639 2°56.016 128.2 0.1 204 7.5
2011-10-17 06:51:48 51°13.639 2°56.016 128.6 0.1 226 7.5
2011-10-17 06:51:53 51°13.64 2°56.016 128.9 0.1 240 7.5
2011-10-17 06:51:58 51°13.64 2°56.016 129.3 -999 248 7.5
2011-10-17 06:52:03 51°13.64 2°56.016 129.4 -999 243 7.5
2011-10-17 06:52:08 51°13.64 2°56.016 129.7 0.1 227 7.5
2011-10-17 06:52:13 51°13.641 2°56.016 130 -999 221 7.6
2011-10-17 06:52:18 51°13.641 2°56.016 130.3 0.1 239 7.4
2011-10-17 06:52:23 51°13.641 2°56.016 130.7 0.1 250 7.4
2011-10-17 06:52:28 51°13.641 2°56.016 131 0.1 246 7.4
2011-10-17 06:52:33 51°13.641 2°56.016 131.4 0.1 251 7.5
2011-10-17 06:52:37 51°13.641 2°56.016 131.8 0.1 238 7.4
2011-10-17 06:52:43 51°13.641 2°56.015 132.2 0.1 237 7.4
2011-10-17 06:52:48 51°13.64 2°56.015 132.7 0.1 218 7.4
2011-10-17 06:52:53 51°13.64 2°56.015 133 0.1 247 7.4
2011-10-17 06:52:57 51°13.64 2°56.015 133.5 0.1 256 7.4
2011-10-17 06:53:03 51°13.64 2°56.015 133.9 0.1 241 7.5
2011-10-17 06:53:08 51°13.64 2°56.015 134.4 0.1 230 7.5
2011-10-17 06:53:13 51°13.64 2°56.014 134.9 0.1 233 7.5
2011-10-17 06:53:18 51°13.64 2°56.014 135.4 0.1 230 7.5
2011-10-17 06:53:23 51°13.64 2°56.014 135.8 0.1 229 5.7
2011-10-17 06:53:28 51°13.64 2°56.014 136.5 0.1 235 7.6
2011-10-17 06:53:33 51°13.639 2°56.014 137 0.1 236 5.8
2011-10-17 06:53:38 51°13.639 2°56.013 137.8 0.1 228 7.7
2011-10-17 06:53:43 51°13.639 2°56.013 138.3 0.1 239 7.7
2011-10-17 06:53:48 51°13.639 2°56.013 139 0.1 242 7.7
2011-10-17 06:53:53 51°13.639 2°56.013 139.8 0.1 227 7.8
2011-10-17 06:53:58 51°13.639 2°56.012 140.3 0.1 214 7.8
2011-10-17 06:54:03 51°13.638 2°56.012 140.9 0.1 214 4.9
2011-10-17 06:54:08 51°13.638 2°56.012 141.5 0.1 220 7.9
2011-10-17 06:54:13 51°13.638 2°56.012 142 0.1 211 7.9
2011-10-17 06:54:18 51°13.638 2°56.013 142.5 0.4 151 8
2011-10-17 06:54:23 51°13.637 2°56.014 143 0.9 144 8.1
2011-10-17 06:54:28 51°13.635 2°56.015 143.5 1.1 151 8.1
2011-10-17 06:54:33 51°13.634 2°56.017 144 1.2 145 8.2
2011-10-17 06:54:38 51°13.632 2°56.018 144.5 1.5 148 8.1
2011-10-17 06:54:43 51°13.63 2°56.02 144.6 1.6 146 8.2
2011-10-17 06:54:48 51°13.628 2°56.023 144.4 1.9 144 8.8
2011-10-17 06:54:53 51°13.626 2°56.026 143.1 2.1 142 9.4
2011-10-17 06:54:57 51°13.624 2°56.028 141 2.1 141 9.8
2011-10-17 06:55:03 51°13.621 2°56.031 138.2 1.9 137 10
2011-10-17 06:55:08 51°13.62 2°56.033 135.8 1.5 138 10.1
2011-10-17 06:55:13 51°13.619 2°56.035 133.3 0.8 132 10.3
2011-10-17 06:55:17 51°13.618 2°56.035 129.8 0.3 151 10.4
2011-10-17 06:55:22 51°13.618 2°56.034 127.1 0.2 302 10.3
2011-10-17 06:55:28 51°13.618 2°56.032 124.4 0.9 298 10.4
2011-10-17 06:55:33 51°13.618 2°56.029 122.7 1.4 303 10.5
2011-10-17 06:55:38 51°13.62 2°56.025 121.9 1.7 302 -999
2011-10-17 06:55:44 51°13.622 2°56.021 121.6 2.2 304 -999
2011-10-17 06:55:49 51°13.623 2°56.016 121.3 2.5 303 -999
2011-10-17 06:55:55 51°13.626 2°56.01 121.3 2.8 304 -999
2011-10-17 06:56:01 51°13.629 2°56.003 121.4 3.1 304 -999
2011-10-17 06:56:06 51°13.631 2°55.997 121.3 3.2 304 -999
2011-10-17 06:56:11 51°13.634 2°55.991 121.2 3.5 304 -999
2011-10-17 06:56:16 51°13.637 2°55.984 121.2 3.7 305 -999
2011-10-17 06:56:21 51°13.64 2°55.977 121.1 3.9 305 -999
2011-10-17 06:56:26 51°13.643 2°55.97 120.6 4 305 -999
2011-10-17 06:56:31 51°13.647 2°55.962 120.2 4.3 304 -999
2011-10-17 06:56:36 51°13.65 2°55.954 119.6 4.5 303 -999
2011-10-17 06:56:41 51°13.654 2°55.945 118.9 4.7 303 -999
2011-10-17 06:56:46 51°13.657 2°55.936 118.1 4.6 302 -999
2011-10-17 06:56:51 51°13.66 2°55.928 117.4 4.5 301 -999
2011-10-17 06:56:56 51°13.663 2°55.919 116.5 4.5 299 -999
2011-10-17 06:57:01 51°13.666 2°55.911 115.9 4.5 299 -999
2011-10-17 06:57:06 51°13.669 2°55.902 115.5 4.6 298 -999
2011-10-17 06:57:11 51°13.672 2°55.893 115.3 4.6 299 -999
2011-10-17 06:57:16 51°13.675 2°55.884 115 4.6 297 -999
2011-10-17 06:57:21 51°13.678 2°55.875 114.2 4.5 297 -999
2011-10-17 06:57:26 51°13.681 2°55.866 112.9 4.4 295 -999
2011-10-17 06:57:31 51°13.683 2°55.858 111.3 4.2 295 -999
2011-10-17 06:57:36 51°13.686 2°55.85 109.7 4.1 293 -999
2011-10-17 06:57:41 51°13.688 2°55.842 108.1 4 292 -999
2011-10-17 06:57:46 51°13.691 2°55.834 106.8 3.9 291 -999
2011-10-17 06:57:51 51°13.692 2°55.827 104.9 3.8 290 -999
2011-10-17 06:57:56 51°13.694 2°55.819 103.2 3.7 289 -999
2011-10-17 06:58:01 51°13.696 2°55.811 101.6 3.7 288 -999
2011-10-17 06:58:06 51°13.697 2°55.803 100 3.7 287 -999
2011-10-17 06:58:11 51°13.698 2°55.795 98.1 3.7 284 -999
2011-10-17 06:58:16 51°13.699 2°55.787 95.5 3.7 282 -999
2011-10-17 06:58:21 51°13.7 2°55.779 93.3 3.6 280 -999
2011-10-17 06:58:26 51°13.701 2°55.772 91.5 3.4 279 -999
2011-10-17 06:58:31 51°13.701 2°55.765 89.3 3.2 277 -999
2011-10-17 06:58:36 51°13.702 2°55.758 87.2 3 275 -999
2011-10-17 06:58:41 51°13.702 2°55.752 85 2.7 275 -999
2011-10-17 06:58:46 51°13.702 2°55.748 83.7 2.2 275 -999
2011-10-17 06:58:51 51°13.702 2°55.744 81.4 1.4 274 -999
2011-10-17 06:58:56 51°13.702 2°55.742 77.3 1.2 276 12.8
2011-10-17 06:59:01 51°13.702 2°55.739 73.4 0.9 273 12.6
2011-10-17 06:59:06 51°13.702 2°55.738 71.2 0.6 286 12.6
2011-10-17 06:59:11 51°13.702 2°55.738 67.5 0.3 319 12.5
2011-10-17 06:59:15 51°13.701 2°55.739 64.7 0.5 10 12.6
2011-10-17 06:59:20 51°13.702 2°55.74 60.6 0.7 28 12.5
2011-10-17 06:59:25 51°13.703 2°55.741 55.7 1 30 12.3
2011-10-17 06:59:30 51°13.705 2°55.742 50.2 1.2 32 12.3
2011-10-17 06:59:35 51°13.707 2°55.743 44.4 1.3 29 12
2011-10-17 06:59:40 51°13.708 2°55.744 38.5 1.2 23 12.2
2011-10-17 06:59:45 51°13.709 2°55.745 33.4 0.7 19 12.4
2011-10-17 06:59:49 51°13.71 2°55.744 29.9 0.4 7 12.5
2011-10-17 06:59:54 51°13.71 2°55.744 26.6 0.2 223 12.5
2011-10-17 06:59:59 51°13.709 2°55.743 23.3 0.8 207 12.5
2011-10-17 07:00:04 51°13.707 2°55.741 20 1.4 201 12.3
2011-10-17 07:00:09 51°13.705 2°55.74 17.2 1.7 200 12.1
2011-10-17 07:00:13 51°13.703 2°55.739 14.7 1.8 195 6.7
2011-10-17 07:00:19 51°13.7 2°55.739 12.6 1.7 195 -999
2011-10-17 07:00:24 51°13.698 2°55.738 11 1.5 190 -999
2011-10-17 07:00:30 51°13.696 2°55.737 10.2 0.9 193 -999
2011-10-17 07:00:36 51°13.696 2°55.737 9.4 0.1 2 -999
2011-10-17 07:00:41 51°13.698 2°55.736 5.8 1 356 -999
2011-10-17 07:00:46 51°13.701 2°55.736 0.8 1.8 357 -999
2011-10-17 07:00:51 51°13.704 2°55.735 352 2.4 345 -999
2011-10-17 07:00:57 51°13.708 2°55.733 344.1 2.8 343 -999
2011-10-17 07:01:01 51°13.712 2°55.73 339.7 3.2 339 -999
2011-10-17 07:01:06 51°13.717 2°55.727 337.1 3.9 337 -999
2011-10-17 07:01:11 51°13.722 2°55.723 335.4 4.4 336 -999
2011-10-17 07:01:16 51°13.728 2°55.718 334.7 4.8 335 -999
2011-10-17 07:01:21 51°13.734 2°55.713 334.4 5.3 334 -999
2011-10-17 07:01:26 51°13.742 2°55.707 334.2 5.6 336 -999
2011-10-17 07:01:31 51°13.749 2°55.701 334.1 6.1 334 11.5
2011-10-17 07:01:36 51°13.758 2°55.696 334 6.4 335 11.4
2011-10-17 07:01:41 51°13.766 2°55.69 334.2 6.8 335 11.3
2011-10-17 07:01:45 51°13.773 2°55.684 334.5 7.1 334 11.5
2011-10-17 07:01:50 51°13.783 2°55.677 334 7.4 335 11.5
2011-10-17 07:01:55 51°13.792 2°55.67 333.7 7.6 335 11.6
2011-10-17 07:02:00 51°13.802 2°55.663 333.9 7.9 336 12.1
2011-10-17 07:02:04 51°13.81 2°55.657 334.4 8 336 11.9
2011-10-17 07:02:09 51°13.821 2°55.65 335.1 8.2 337 12.1
2011-10-17 07:02:14 51°13.831 2°55.642 335.3 8.3 335 12
2011-10-17 07:02:19 51°13.842 2°55.635 335.5 8.4 338 11.8
2011-10-17 07:02:23 51°13.85 2°55.629 336.5 8.5 337 11.4
2011-10-17 07:02:29 51°13.863 2°55.62 336.9 8.6 338 11.4
2011-10-17 07:02:33 51°13.872 2°55.614 336.9 8.6 337 11.3
2011-10-17 07:02:38 51°13.883 2°55.607 336.9 8.5 337 11.4
2011-10-17 07:02:43 51°13.894 2°55.6 337.5 8.5 338 12
2011-10-17 07:02:48 51°13.905 2°55.593 337.6 8.6 339 12
2011-10-17 07:02:53 51°13.916 2°55.587 337.9 8.6 340 11.5
2011-10-17 07:02:58 51°13.928 2°55.581 339 8.6 340 11.3
2011-10-17 07:03:03 51°13.939 2°55.574 339.3 8.6 340 11.4
2011-10-17 07:03:08 51°13.95 2°55.567 339.3 8.6 340 10.9
2011-10-17 07:03:13 51°13.961 2°55.561 339.5 8.5 340 11.5
2011-10-17 07:03:18 51°13.972 2°55.555 340.4 8.5 341 11.5
2011-10-17 07:03:23 51°13.983 2°55.548 340.5 8.5 340 11.6
2011-10-17 07:03:28 51°13.995 2°55.542 340.2 8.6 341 11.8
2011-10-17 07:03:33 51°14.006 2°55.536 339.9 8.6 340 11.2
2011-10-17 07:03:38 51°14.017 2°55.529 339.2 8.6 340 11.3
2011-10-17 07:03:43 51°14.028 2°55.522 338.6 8.6 339 11
2011-10-17 07:03:48 51°14.039 2°55.515 337.6 8.7 337 11.1
2011-10-17 07:03:53 51°14.05 2°55.506 336.4 8.8 335 11.3
2011-10-17 07:03:58 51°14.061 2°55.498 334.4 8.9 333 -999
2011-10-17 07:04:03 51°14.072 2°55.488 332.7 9 332 11.3
2011-10-17 07:04:09 51°14.086 2°55.477 332.4 9.1 332 11.1
2011-10-17 07:04:13 51°14.095 2°55.47 332 9.1 332 11
2011-10-17 07:04:17 51°14.104 2°55.462 331.6 9.2 333 10.9
2011-10-17 07:04:22 51°14.115 2°55.453 332 9.3 332 10.9
2011-10-17 07:04:28 51°14.129 2°55.44 331.4 9.4 330 10.9
2011-10-17 07:04:33 51°14.141 2°55.43 329.5 9.6 329 11
2011-10-17 07:04:38 51°14.153 2°55.419 329.1 9.7 329 11
2011-10-17 07:04:43 51°14.164 2°55.407 329.2 10 329 10.9
2011-10-17 07:04:49 51°14.178 2°55.393 327.9 10.1 328 -999
2011-10-17 07:04:54 51°14.19 2°55.382 328 10.2 329 -999
2011-10-17 07:04:59 51°14.203 2°55.37 328.9 10.4 329 -999
2011-10-17 07:05:05 51°14.217 2°55.355 328.7 10.5 329 -999
2011-10-17 07:05:10 51°14.23 2°55.344 328.6 10.6 330 -999
2011-10-17 07:05:15 51°14.243 2°55.331 328.5 10.7 328 11.1
2011-10-17 07:05:20 51°14.256 2°55.319 328.2 10.7 330 11
2011-10-17 07:05:25 51°14.268 2°55.307 328.9 10.8 330 10.6
2011-10-17 07:05:29 51°14.279 2°55.298 329.1 10.9 329 11.1
2011-10-17 07:05:34 51°14.292 2°55.286 329.1 10.9 331 11
2011-10-17 07:05:40 51°14.309 2°55.271 329.9 11 330 -999
2011-10-17 07:05:45 51°14.322 2°55.26 330.3 11.1 332 -999
2011-10-17 07:05:49 51°14.333 2°55.25 331.2 11.1 331 10.9
2011-10-17 07:05:54 51°14.346 2°55.238 330.8 11.2 330 11
2011-10-17 07:05:59 51°14.359 2°55.225 329.6 11.2 330 11
2011-10-17 07:06:04 51°14.373 2°55.213 329.6 11.2 330 -999
2011-10-17 07:06:09 51°14.386 2°55.2 329.8 11.2 329 11
2011-10-17 07:06:13 51°14.397 2°55.19 329 11.2 329 11.1
2011-10-17 07:06:18 51°14.41 2°55.177 328.8 11.2 329 11.2
2011-10-17 07:06:23 51°14.424 2°55.164 329.4 11.3 329 11.1
2011-10-17 07:06:28 51°14.437 2°55.151 328.9 11.3 328 11
2011-10-17 07:06:33 51°14.45 2°55.138 328.1 11.4 328 10.5
2011-10-17 07:06:37 51°14.461 2°55.126 326.7 11.4 326 10.3
2011-10-17 07:06:42 51°14.474 2°55.113 326.5 11.4 329 11.3
2011-10-17 07:06:48 51°14.49 2°55.096 327.1 11.5 327 11.4
2011-10-17 07:06:53 51°14.504 2°55.083 326.3 11.5 327 11.1
2011-10-17 07:06:58 51°14.517 2°55.069 326.4 11.5 328 11.5
2011-10-17 07:07:03 51°14.531 2°55.056 327.9 11.7 328 11.4
2011-10-17 07:07:08 51°14.545 2°55.041 327.8 11.8 324 11.5
2011-10-17 07:07:13 51°14.558 2°55.024 326.2 11.9 322 11.5
2011-10-17 07:07:17 51°14.568 2°55.011 324.9 12.1 320 11.7
2011-10-17 07:07:23 51°14.584 2°54.992 326 12.1 325 11.8
2011-10-17 07:07:28 51°14.598 2°54.976 328.3 12.2 323 11.8
2011-10-17 07:07:33 51°14.612 2°54.96 328 12.2 324 11.7
2011-10-17 07:07:38 51°14.626 2°54.945 329.1 12.2 326 11.8
2011-10-17 07:07:43 51°14.64 2°54.93 329.8 12.3 326 11.6
2011-10-17 07:07:48 51°14.654 2°54.915 330.5 12.3 327 11.5
2011-10-17 07:07:53 51°14.668 2°54.901 331.5 12.2 327 11.6
2011-10-17 07:07:58 51°14.682 2°54.885 331.5 12.3 327 11.6
2011-10-17 07:08:03 51°14.696 2°54.87 329.9 12.3 326 11.5
2011-10-17 07:08:08 51°14.711 2°54.855 329.5 12.4 328 11.5
2011-10-17 07:08:13 51°14.725 2°54.841 329.8 12.3 328 11.4
2011-10-17 07:08:18 51°14.739 2°54.827 330.6 12.1 330 11.4
2011-10-17 07:08:23 51°14.754 2°54.816 334.6 11.9 336 11.3
2011-10-17 07:08:28 51°14.77 2°54.807 339.4 11.9 338 11.3
2011-10-17 07:08:33 51°14.786 2°54.797 341 12 339 11.1
2011-10-17 07:08:37 51°14.798 2°54.79 342.2 11.9 341 10.7
2011-10-17 07:08:43 51°14.817 2°54.781 344.5 11.9 343 10.5
2011-10-17 07:08:48 51°14.833 2°54.774 345.9 11.9 343 10.4
2011-10-17 07:08:53 51°14.849 2°54.766 346.3 11.9 344 10.1
2011-10-17 07:08:57 51°14.861 2°54.762 348.2 11.8 349 9.8
2011-10-17 07:09:03 51°14.881 2°54.757 350.8 11.8 350 10
2011-10-17 07:09:08 51°14.897 2°54.753 353.2 11.8 352 9.6
2011-10-17 07:09:13 51°14.913 2°54.749 354.2 11.8 352 9.4
2011-10-17 07:09:17 51°14.926 2°54.747 355 11.8 354 9.5
2011-10-17 07:09:23 51°14.946 2°54.744 356 11.8 355 9.5
2011-10-17 07:09:28 51°14.962 2°54.743 357.9 11.7 357 9.4
2011-10-17 07:09:33 51°14.978 2°54.742 359.9 11.7 359 9.4
2011-10-17 07:09:38 51°14.994 2°54.743 1.6 11.7 -999 9.4
2011-10-17 07:09:43 51°15.011 2°54.743 2.6 11.7 -999 9.2
2011-10-17 07:09:48 51°15.027 2°54.743 3 11.7 -999 9.2
2011-10-17 07:09:53 51°15.043 2°54.743 3.2 11.7 -999 9
2011-10-17 07:09:58 51°15.06 2°54.743 3.1 11.7 -999 8.9
2011-10-17 07:10:03 51°15.076 2°54.741 2.3 11.6 357 8.8
2011-10-17 07:10:08 51°15.092 2°54.739 0.1 11.6 354 8.5
2011-10-17 07:10:13 51°15.108 2°54.734 357.2 11.6 350 8.5
2011-10-17 07:10:17 51°15.12 2°54.729 353.6 11.6 347 8.3
2011-10-17 07:10:23 51°15.139 2°54.721 349.6 11.6 343 8.3
2011-10-17 07:10:28 51°15.154 2°54.713 346.2 11.6 343 8.4
2011-10-17 07:10:33 51°15.17 2°54.706 345.6 11.7 344 8.3
2011-10-17 07:10:37 51°15.182 2°54.701 346.2 11.7 344 8.4
2011-10-17 07:10:43 51°15.201 2°54.692 346.6 11.8 344 8.4
2011-10-17 07:10:48 51°15.217 2°54.684 346 11.8 344 8.6
2011-10-17 07:10:53 51°15.233 2°54.678 345.8 11.8 344 8.5
2011-10-17 07:10:57 51°15.245 2°54.672 346.5 11.8 345 8.6
2011-10-17 07:11:03 51°15.264 2°54.664 347 11.9 345 8.6
2011-10-17 07:11:08 51°15.28 2°54.658 347.4 11.9 346 8.7
2011-10-17 07:11:13 51°15.296 2°54.651 348.1 11.9 346 8.8
2011-10-17 07:11:17 51°15.309 2°54.647 348.9 11.9 347 8.8
2011-10-17 07:11:23 51°15.328 2°54.639 349.3 11.9 346 8.9
2011-10-17 07:11:28 51°15.344 2°54.633 348.6 11.9 346 8.9
2011-10-17 07:11:33 51°15.36 2°54.626 348.4 11.9 345 9
2011-10-17 07:11:38 51°15.376 2°54.619 348.2 11.9 345 9
2011-10-17 07:11:43 51°15.392 2°54.613 348 12 345 9.1
2011-10-17 07:11:48 51°15.408 2°54.606 347.8 12 346 9.2
2011-10-17 07:11:53 51°15.424 2°54.6 348.1 11.9 346 9.2
2011-10-17 07:11:57 51°15.437 2°54.595 348.5 11.9 346 9.2
2011-10-17 07:12:03 51°15.456 2°54.587 348.6 11.9 346 9.2
2011-10-17 07:12:08 51°15.472 2°54.581 348.9 11.9 346 9.4
2011-10-17 07:12:13 51°15.488 2°54.575 349 11.9 346 9.3
2011-10-17 07:12:18 51°15.504 2°54.568 348.8 11.9 346 9.4
2011-10-17 07:12:23 51°15.52 2°54.562 348.8 11.9 346 9.5
2011-10-17 07:12:28 51°15.537 2°54.556 349.1 11.9 347 9.5
2011-10-17 07:12:33 51°15.553 2°54.551 349.5 11.9 348 9.6
2011-10-17 07:12:37 51°15.566 2°54.546 350.2 11.9 348 9.6
2011-10-17 07:12:43 51°15.585 2°54.54 350.7 11.9 348 9.6
2011-10-17 07:12:48 51°15.601 2°54.535 351.3 11.9 349 9.7
2011-10-17 07:12:53 51°15.618 2°54.53 352.1 11.9 349 9.7
2011-10-17 07:12:57 51°15.63 2°54.526 352.5 11.9 350 9.7
2011-10-17 07:13:03 51°15.65 2°54.522 353.4 11.9 352 9.8
2011-10-17 07:13:08 51°15.666 2°54.518 354.8 11.9 352 9.8
2011-10-17 07:13:13 51°15.683 2°54.515 355.9 11.9 353 9.9
2011-10-17 07:13:17 51°15.696 2°54.511 355.6 11.9 350 9.9
2011-10-17 07:13:23 51°15.715 2°54.506 354.4 11.9 351 9.9
2011-10-17 07:13:28 51°15.732 2°54.501 353.9 12 349 10
2011-10-17 07:13:33 51°15.748 2°54.496 352.8 12 349 10
2011-10-17 07:13:38 51°15.764 2°54.489 351.8 12 347 10
2011-10-17 07:13:43 51°15.78 2°54.483 350.7 12 347 10
2011-10-17 07:13:48 51°15.797 2°54.477 349.9 12 345 10.1
2011-10-17 07:13:53 51°15.813 2°54.47 349 12 344 10.1
2011-10-17 07:13:57 51°15.825 2°54.464 347.7 12 344 10.1
2011-10-17 07:14:03 51°15.845 2°54.454 346.9 12 342 10.2
2011-10-17 07:14:08 51°15.861 2°54.446 346.2 12 343 10.2
2011-10-17 07:14:13 51°15.876 2°54.438 345.8 12 342 10.2
2011-10-17 07:14:18 51°15.892 2°54.43 345.1 12 341 10.3
2011-10-17 07:14:23 51°15.908 2°54.421 344.9 12 342 10.3
2011-10-17 07:14:28 51°15.923 2°54.414 345.1 11.5 342 10.3
2011-10-17 07:14:33 51°15.938 2°54.406 345.3 10.9 342 10.4
2011-10-17 07:14:38 51°15.951 2°54.399 345.3 10.5 342 10.4
2011-10-17 07:14:43 51°15.964 2°54.392 345.3 9.9 342 10.5
2011-10-17 07:14:48 51°15.977 2°54.385 345.6 9.4 343 10.5
2011-10-17 07:14:53 51°15.989 2°54.38 346.3 9.1 343 10.6
2011-10-17 07:14:58 51°16 2°54.374 347 8.8 344 10.5
2011-10-17 07:15:03 51°16.012 2°54.369 348.1 8.4 345 10.6
2011-10-17 07:15:08 51°16.023 2°54.365 349.1 8.2 346 10.6
2011-10-17 07:15:13 51°16.033 2°54.361 350.1 7.9 346 10.6
2011-10-17 07:15:17 51°16.041 2°54.358 350.8 7.5 347 10.6
2011-10-17 07:15:22 51°16.051 2°54.354 351.4 7 347 10.7
2011-10-17 07:15:28 51°16.062 2°54.35 352.3 6.6 348 10.8
2011-10-17 07:15:33 51°16.07 2°54.347 353 6.3 347 10.8
2011-10-17 07:15:37 51°16.077 2°54.345 353.7 6 348 10.7
2011-10-17 07:15:43 51°16.086 2°54.342 354.4 5.7 349 10.8
2011-10-17 07:15:48 51°16.093 2°54.34 355 5.5 349 10.8
2011-10-17 07:15:53 51°16.101 2°54.337 355.4 5.2 348 10.8
2011-10-17 07:15:57 51°16.106 2°54.336 355.7 5.1 348 10.8
2011-10-17 07:16:03 51°16.114 2°54.333 355.7 4.9 348 10.7
2011-10-17 07:16:08 51°16.121 2°54.331 355.7 4.7 347 10.9
2011-10-17 07:16:13 51°16.127 2°54.329 355.5 4.5 348 10.8
2011-10-17 07:16:18 51°16.132 2°54.326 355.2 4.4 347 10.9
2011-10-17 07:16:23 51°16.138 2°54.324 354.9 4.2 346 10.9
2011-10-17 07:16:28 51°16.143 2°54.321 354.3 4.1 346 10.8
2011-10-17 07:16:33 51°16.149 2°54.319 353.4 4 343 10.9
2011-10-17 07:16:38 51°16.154 2°54.316 352.3 3.9 343 11
2011-10-17 07:16:43 51°16.159 2°54.314 351.2 3.8 341 10.9
2011-10-17 07:16:48 51°16.164 2°54.311 349.9 3.8 341 11
2011-10-17 07:16:53 51°16.169 2°54.308 348.9 3.8 339 11
2011-10-17 07:16:58 51°16.173 2°54.305 347.7 3.7 339 10.9
2011-10-17 07:17:03 51°16.178 2°54.302 346.8 3.7 337 10.9
2011-10-17 07:17:08 51°16.183 2°54.298 345.8 3.7 337 11
2011-10-17 07:17:13 51°16.188 2°54.295 345.2 3.8 337 11
2011-10-17 07:17:17 51°16.191 2°54.292 345 3.8 337 11
2011-10-17 07:17:23 51°16.197 2°54.289 345.3 3.8 339 10.9
2011-10-17 07:17:28 51°16.203 2°54.286 345.9 3.9 339 11
2011-10-17 07:17:33 51°16.208 2°54.283 347.6 3.8 342 11
2011-10-17 07:17:37 51°16.211 2°54.281 350.7 3.7 344 11
2011-10-17 07:17:43 51°16.217 2°54.279 354.4 3.4 348 11
2011-10-17 07:17:48 51°16.221 2°54.278 358 3.3 349 11
2011-10-17 07:17:53 51°16.226 2°54.277 0.7 3.1 352 11
2011-10-17 07:17:57 51°16.229 2°54.276 3 3.1 351 11.1
2011-10-17 07:18:02 51°16.233 2°54.275 4.7 2.9 354 11
2011-10-17 07:18:08 51°16.237 2°54.275 6.4 2.5 354 11
2011-10-17 07:18:13 51°16.24 2°54.274 8.1 2.3 355 11
2011-10-17 07:18:18 51°16.243 2°54.274 9.6 2 351 11
2011-10-17 07:18:23 51°16.246 2°54.273 10.8 1.7 351 10.9
2011-10-17 07:18:28 51°16.247 2°54.272 11.3 1.4 345 11
2011-10-17 07:18:33 51°16.249 2°54.272 11.6 1.1 340 11
2011-10-17 07:18:37 51°16.25 2°54.271 12 0.9 333 11
2011-10-17 07:18:43 51°16.251 2°54.27 12 0.8 327 11
2011-10-17 07:18:48 51°16.252 2°54.269 12.4 0.7 330 11.1
2011-10-17 07:18:53 51°16.252 2°54.268 12.7 0.7 329 11
2011-10-17 07:18:58 51°16.253 2°54.267 13.2 0.7 333 11
2011-10-17 07:19:03 51°16.254 2°54.267 13.9 0.6 330 11
2011-10-17 07:19:08 51°16.255 2°54.266 14.8 0.6 336 11
2011-10-17 07:19:13 51°16.256 2°54.265 15.5 0.6 333 11
2011-10-17 07:19:18 51°16.257 2°54.264 16.2 0.6 335 11
2011-10-17 07:19:23 51°16.257 2°54.264 17.2 0.7 332 11
2011-10-17 07:19:28 51°16.258 2°54.263 17.8 0.6 339 11.1
2011-10-17 07:19:33 51°16.259 2°54.263 18.3 0.6 329 11
2011-10-17 07:19:37 51°16.259 2°54.262 18.9 0.6 336 11
2011-10-17 07:19:43 51°16.26 2°54.262 19 0.6 333 11
2011-10-17 07:19:48 51°16.261 2°54.261 19.1 0.5 336 11.1
2011-10-17 07:19:53 51°16.262 2°54.261 19.2 0.6 337 11.1
2011-10-17 07:19:57 51°16.262 2°54.26 19.2 0.6 336 11
2011-10-17 07:20:02 51°16.263 2°54.26 19 0.5 335 11
2011-10-17 07:20:08 51°16.264 2°54.259 18.6 0.6 334 11.1
2011-10-17 07:20:13 51°16.264 2°54.259 18.2 0.6 331 11
2011-10-17 07:20:18 51°16.265 2°54.258 17.6 0.6 331 11
2011-10-17 07:20:23 51°16.266 2°54.258 17.1 0.5 336 11.1
2011-10-17 07:20:28 51°16.266 2°54.257 16.5 0.6 333 11
2011-10-17 07:20:33 51°16.267 2°54.257 16 0.5 332 11
2011-10-17 07:20:37 51°16.268 2°54.256 15.3 0.6 327 11
2011-10-17 07:20:43 51°16.268 2°54.255 14.7 0.6 329 11
2011-10-17 07:20:48 51°16.269 2°54.254 14 0.6 324 11
2011-10-17 07:20:53 51°16.27 2°54.254 13.3 0.6 328 11
2011-10-17 07:20:58 51°16.27 2°54.253 12.5 0.6 322 11
2011-10-17 07:21:03 51°16.271 2°54.252 11.7 0.6 325 11
2011-10-17 07:21:08 51°16.272 2°54.251 10.8 0.6 324 11
2011-10-17 07:21:13 51°16.272 2°54.251 10 0.6 324 11
2011-10-17 07:21:17 51°16.273 2°54.25 9 0.6 322 11.1
2011-10-17 07:21:23 51°16.274 2°54.249 8.1 0.6 323 11.1
2011-10-17 07:21:28 51°16.274 2°54.248 7.3 0.6 319 11
2011-10-17 07:21:33 51°16.275 2°54.247 6.5 0.6 322 11
2011-10-17 07:21:37 51°16.275 2°54.246 5.6 0.6 318 11
2011-10-17 07:21:43 51°16.276 2°54.245 4.8 0.6 321 11
2011-10-17 07:21:48 51°16.276 2°54.244 3.9 0.6 316 11.1
2011-10-17 07:21:53 51°16.277 2°54.243 3.1 0.6 320 11
2011-10-17 07:21:57 51°16.278 2°54.243 2.5 0.7 313 11
2011-10-17 07:22:03 51°16.278 2°54.241 1.9 0.6 315 11
2011-10-17 07:22:08 51°16.279 2°54.24 1.1 0.7 312 11.1
2011-10-17 07:22:13 51°16.28 2°54.24 0.4 0.6 317 11.1
2011-10-17 07:22:17 51°16.28 2°54.239 359.7 0.6 311 11
2011-10-17 07:22:23 51°16.281 2°54.238 359 0.6 314 11
2011-10-17 07:22:28 51°16.281 2°54.237 358.4 0.7 308 11
2011-10-17 07:22:33 51°16.282 2°54.236 357.9 0.6 315 11
2011-10-17 07:22:37 51°16.282 2°54.235 357.2 0.6 309 11
2011-10-17 07:22:43 51°16.283 2°54.234 356.6 0.6 311 11.1
2011-10-17 07:22:48 51°16.284 2°54.232 356 0.7 307 11.1
2011-10-17 07:22:53 51°16.284 2°54.231 355.4 0.6 307 11
2011-10-17 07:22:58 51°16.285 2°54.23 355 0.7 307 11.1
2011-10-17 07:23:03 51°16.285 2°54.229 354.5 0.6 305 11.1
2011-10-17 07:23:08 51°16.286 2°54.228 353.9 0.6 304 11
2011-10-17 07:23:13 51°16.286 2°54.227 353.4 0.6 303 11
2011-10-17 07:23:17 51°16.286 2°54.226 352.8 0.6 306 11.1
2011-10-17 07:23:23 51°16.287 2°54.224 352.1 0.6 302 11.1
2011-10-17 07:23:28 51°16.287 2°54.223 351.6 0.6 301 11
2011-10-17 07:23:33 51°16.288 2°54.222 351.2 0.6 303 11.1
2011-10-17 07:23:38 51°16.288 2°54.221 350.5 0.6 301 11
2011-10-17 07:23:43 51°16.289 2°54.219 350 0.6 300 11
2011-10-17 07:23:48 51°16.289 2°54.218 349.5 0.6 303 11.1
2011-10-17 07:23:53 51°16.29 2°54.217 349.3 0.6 301 11.1
2011-10-17 07:23:57 51°16.29 2°54.216 348.8 0.6 300 11
2011-10-17 07:24:03 51°16.29 2°54.215 348.4 0.6 300 11
2011-10-17 07:24:08 51°16.291 2°54.214 347.9 0.6 298 11.1
2011-10-17 07:24:13 51°16.291 2°54.213 347.4 0.6 299 11
2011-10-17 07:24:17 51°16.291 2°54.212 346.7 0.6 299 11
2011-10-17 07:24:23 51°16.292 2°54.21 346.3 0.6 299 11.1
2011-10-17 07:24:28 51°16.292 2°54.209 345.6 0.6 299 11.1
2011-10-17 07:24:33 51°16.293 2°54.208 345.2 0.6 299 11.1
2011-10-17 07:24:37 51°16.293 2°54.207 344.8 0.6 298 11.1
2011-10-17 07:24:43 51°16.293 2°54.206 344.5 0.6 296 11
2011-10-17 07:24:48 51°16.294 2°54.204 344 0.6 295 11
2011-10-17 07:24:53 51°16.294 2°54.203 343.5 0.6 298 11
2011-10-17 07:24:58 51°16.294 2°54.202 343.2 0.6 294 11
2011-10-17 07:25:03 51°16.295 2°54.201 342.7 0.6 298 11
2011-10-17 07:25:08 51°16.295 2°54.199 342.5 0.7 295 11.1
2011-10-17 07:25:13 51°16.296 2°54.198 342 0.6 297 11.1
2011-10-17 07:25:18 51°16.296 2°54.197 341.7 0.6 293 11
2011-10-17 07:25:23 51°16.296 2°54.196 341.3 0.6 298 11
2011-10-17 07:25:28 51°16.297 2°54.194 340.9 0.6 294 11.1
2011-10-17 07:25:33 51°16.297 2°54.193 340.4 0.6 292 11
2011-10-17 07:25:38 51°16.297 2°54.192 340 0.7 294 11.1
2011-10-17 07:25:43 51°16.298 2°54.191 339.7 0.6 291 11.1
2011-10-17 07:25:48 51°16.298 2°54.189 339.3 0.6 293 11
2011-10-17 07:25:53 51°16.298 2°54.188 338.9 0.7 292 11.1
2011-10-17 07:25:58 51°16.299 2°54.187 337.9 0.6 290 11
2011-10-17 07:26:03 51°16.299 2°54.185 337.6 0.7 292 11
2011-10-17 07:26:08 51°16.299 2°54.184 336.9 0.7 291 11.1
2011-10-17 07:26:13 51°16.299 2°54.183 336.5 0.6 289 11.1
2011-10-17 07:26:17 51°16.3 2°54.182 336.1 0.6 289 11.1
2011-10-17 07:26:23 51°16.3 2°54.18 335.8 0.7 289 11
2011-10-17 07:26:28 51°16.3 2°54.179 335.3 0.6 287 11.1
2011-10-17 07:26:33 51°16.3 2°54.177 335.1 0.6 285 11.1
2011-10-17 07:26:37 51°16.301 2°54.176 334.6 0.6 286 11.1
2011-10-17 07:26:43 51°16.301 2°54.174 334.2 0.6 287 11.1
2011-10-17 07:26:48 51°16.301 2°54.173 333.9 0.6 286 11.1
2011-10-17 07:26:53 51°16.301 2°54.171 333.6 0.6 285 11.1
2011-10-17 07:26:58 51°16.302 2°54.17 333.2 0.6 286 11
2011-10-17 07:27:03 51°16.302 2°54.169 333 0.7 284 11
2011-10-17 07:27:08 51°16.302 2°54.167 332.7 0.6 285 11
2011-10-17 07:27:13 51°16.302 2°54.166 332.5 0.6 283 11
2011-10-17 07:27:17 51°16.302 2°54.165 332.4 0.6 283 11
2011-10-17 07:27:23 51°16.302 2°54.163 332.3 0.6 280 11.1
2011-10-17 07:27:28 51°16.303 2°54.162 332 0.6 281 11
2011-10-17 07:27:33 51°16.303 2°54.161 331.8 0.7 280 11
2011-10-17 07:27:38 51°16.303 2°54.159 331.6 0.6 281 11
2011-10-17 07:27:43 51°16.303 2°54.158 331.4 0.7 279 11
2011-10-17 07:27:48 51°16.303 2°54.156 331.2 0.6 279 11
2011-10-17 07:27:53 51°16.303 2°54.155 331 0.6 278 11
2011-10-17 07:27:58 51°16.303 2°54.153 330.8 0.7 280 11
2011-10-17 07:28:03 51°16.304 2°54.152 330.8 0.7 277 11
2011-10-17 07:28:08 51°16.304 2°54.151 330.4 0.6 279 11
2011-10-17 07:28:13 51°16.304 2°54.149 330.3 0.7 277 11
2011-10-17 07:28:18 51°16.304 2°54.148 330.2 0.6 280 11.1
2011-10-17 07:28:23 51°16.304 2°54.147 330.1 0.6 278 11
2011-10-17 07:28:28 51°16.304 2°54.145 330 0.6 282 11.1
2011-10-17 07:28:33 51°16.304 2°54.144 330.1 0.6 279 11
2011-10-17 07:28:37 51°16.304 2°54.143 330.2 0.6 280 11
2011-10-17 07:28:43 51°16.304 2°54.142 330.3 0.6 281 11.1
2011-10-17 07:28:48 51°16.305 2°54.14 330.4 0.5 280 11.1
2011-10-17 07:28:53 51°16.305 2°54.139 330.5 0.6 280 11
2011-10-17 07:28:57 51°16.305 2°54.138 330.7 0.5 283 11
2011-10-17 07:29:03 51°16.305 2°54.137 331 0.5 281 11
2011-10-17 07:29:08 51°16.305 2°54.136 331.1 0.5 283 11.1
2011-10-17 07:29:13 51°16.305 2°54.135 331.6 0.5 280 11.1
2011-10-17 07:29:17 51°16.305 2°54.134 331.9 0.4 279 11
2011-10-17 07:29:23 51°16.305 2°54.133 332.2 0.5 280 11.1
2011-10-17 07:29:28 51°16.305 2°54.132 332.6 0.5 283 11.1
2011-10-17 07:29:33 51°16.305 2°54.131 332.9 0.5 279 11
2011-10-17 07:29:38 51°16.305 2°54.13 333.2 0.5 281 11
2011-10-17 07:29:43 51°16.305 2°54.129 333.6 0.5 279 11
2011-10-17 07:29:48 51°16.306 2°54.128 334 0.4 278 11
2011-10-17 07:29:53 51°16.306 2°54.127 334.4 0.3 275 11.1
2011-10-17 07:29:57 51°16.306 2°54.126 334.9 0.4 277 11
2011-10-17 07:30:03 51°16.306 2°54.125 335.2 0.4 275 11
2011-10-17 07:30:08 51°16.306 2°54.124 335.8 0.4 273 11
2011-10-17 07:30:13 51°16.306 2°54.123 336.2 0.4 271 11.1
2011-10-17 07:30:18 51°16.306 2°54.122 336.7 0.5 273 11.1
2011-10-17 07:30:23 51°16.306 2°54.121 337.1 0.4 273 11
2011-10-17 07:30:28 51°16.306 2°54.12 337.6 0.4 273 11
2011-10-17 07:30:33 51°16.306 2°54.12 338.1 0.3 276 11.1
2011-10-17 07:30:37 51°16.306 2°54.119 339 0.4 272 11
2011-10-17 07:30:43 51°16.306 2°54.118 339.6 0.3 275 11
2011-10-17 07:30:48 51°16.306 2°54.117 340.2 0.4 269 11
2011-10-17 07:30:53 51°16.306 2°54.117 340.8 0.3 270 11.1
2011-10-17 07:30:57 51°16.306 2°54.116 341.4 0.4 270 11
2011-10-17 07:31:03 51°16.306 2°54.115 342 0.3 274 11.1
2011-10-17 07:31:08 51°16.306 2°54.114 342.7 0.4 267 11.1
2011-10-17 07:31:13 51°16.306 2°54.114 343.2 0.3 270 11.1
2011-10-17 07:31:17 51°16.306 2°54.113 343.8 0.3 274 10.9
2011-10-17 07:31:23 51°16.306 2°54.112 344.3 0.3 266 11.1
2011-10-17 07:31:28 51°16.306 2°54.112 344.9 0.3 270 11
2011-10-17 07:31:33 51°16.306 2°54.111 345.5 0.3 269 11
2011-10-17 07:31:38 51°16.306 2°54.11 345.8 0.3 271 11
2011-10-17 07:31:43 51°16.306 2°54.11 346.2 0.3 267 10.9
2011-10-17 07:31:48 51°16.306 2°54.109 346.6 0.3 267 11
2011-10-17 07:31:53 51°16.306 2°54.108 346.9 0.3 265 11
2011-10-17 07:31:58 51°16.306 2°54.107 347.1 0.3 264 11
2011-10-17 07:32:03 51°16.306 2°54.107 347.4 0.3 273 11.1
2011-10-17 07:32:08 51°16.306 2°54.106 347.9 0.3 267 11
2011-10-17 07:32:13 51°16.306 2°54.105 348.2 0.3 257 11
2011-10-17 07:32:18 51°16.306 2°54.105 348.7 0.3 270 11
2011-10-17 07:32:23 51°16.306 2°54.104 348.9 0.3 256 11
2011-10-17 07:32:28 51°16.306 2°54.103 349.6 0.3 262 10.9
2011-10-17 07:32:33 51°16.306 2°54.103 350 0.3 267 11
2011-10-17 07:32:37 51°16.306 2°54.102 350.5 0.3 262 10.9
2011-10-17 07:32:43 51°16.305 2°54.102 350.9 0.3 258 11
2011-10-17 07:32:48 51°16.305 2°54.101 351.6 0.3 258 11
2011-10-17 07:32:53 51°16.305 2°54.101 352.2 0.3 259 11.1
2011-10-17 07:32:57 51°16.305 2°54.1 352.8 0.2 250 11
2011-10-17 07:33:03 51°16.305 2°54.1 353.5 0.2 253 11
2011-10-17 07:33:08 51°16.305 2°54.099 354 0.2 253 11
2011-10-17 07:33:13 51°16.305 2°54.098 354.3 0.3 258 11
2011-10-17 07:33:17 51°16.305 2°54.098 354.7 0.2 252 11
2011-10-17 07:33:22 51°16.305 2°54.097 355.2 0.3 255 11
2011-10-17 07:33:28 51°16.305 2°54.097 355.7 0.3 254 11
2011-10-17 07:33:33 51°16.305 2°54.096 356 0.3 247 11
2011-10-17 07:33:38 51°16.305 2°54.095 356.3 0.3 253 11.1
2011-10-17 07:33:43 51°16.304 2°54.095 356.5 0.3 256 11
2011-10-17 07:33:48 51°16.304 2°54.094 356.7 0.3 255 11.1
2011-10-17 07:33:53 51°16.304 2°54.094 357.2 0.3 251 11
2011-10-17 07:33:57 51°16.304 2°54.093 357.4 0.3 248 11
2011-10-17 07:34:03 51°16.304 2°54.093 357.9 0.3 254 11
2011-10-17 07:34:08 51°16.304 2°54.092 358.5 0.2 248 11
2011-10-17 07:34:13 51°16.303 2°54.092 358.8 0.4 214 11
2011-10-17 07:34:18 51°16.302 2°54.091 359.3 0.7 199 11
2011-10-17 07:34:23 51°16.301 2°54.091 359.2 0.9 191 11
2011-10-17 07:34:28 51°16.299 2°54.09 359.4 1.2 187 11
2011-10-17 07:34:33 51°16.297 2°54.09 -999 1.7 189 11
2011-10-17 07:34:38 51°16.294 2°54.089 0.8 2 187 11
2011-10-17 07:34:43 51°16.29 2°54.089 1.8 2.4 188 10.9
2011-10-17 07:34:48 51°16.287 2°54.087 4.1 2.7 190 -999
2011-10-17 07:34:54 51°16.282 2°54.086 5.9 3 191 -999
2011-10-17 07:35:00 51°16.276 2°54.084 8.3 3.2 193 -999
2011-10-17 07:35:05 51°16.272 2°54.081 10.3 3.5 197 -999
2011-10-17 07:35:11 51°16.266 2°54.078 12.7 3.7 199 -999
2011-10-17 07:35:16 51°16.261 2°54.075 14.6 3.9 200 -999
2011-10-17 07:35:21 51°16.256 2°54.072 16.8 4 201 -999
2011-10-17 07:35:26 51°16.25 2°54.068 18.6 4.2 204 -999
2011-10-17 07:35:31 51°16.245 2°54.064 20.3 4.3 206 -999
2011-10-17 07:35:36 51°16.239 2°54.06 22.2 4.4 208 -999
2011-10-17 07:35:41 51°16.234 2°54.055 23.9 4.5 208 -999
2011-10-17 07:35:46 51°16.229 2°54.05 25.7 4.2 211 -999
2011-10-17 07:35:51 51°16.224 2°54.045 28.1 4 212 -999
2011-10-17 07:35:56 51°16.22 2°54.041 30 3.8 215 -999
2011-10-17 07:36:01 51°16.216 2°54.036 32.1 3.6 216 -999
2011-10-17 07:36:06 51°16.213 2°54.032 34.3 3.2 218 -999
2011-10-17 07:36:11 51°16.21 2°54.028 36.3 2.8 220 10.9
2011-10-17 07:36:16 51°16.208 2°54.025 38.4 2.3 220 10.9
2011-10-17 07:36:21 51°16.206 2°54.022 40.7 1.8 225 10.9
2011-10-17 07:36:25 51°16.205 2°54.021 44.2 1.4 222 10.9
2011-10-17 07:36:30 51°16.204 2°54.019 48.7 0.9 227 10.9
2011-10-17 07:36:35 51°16.204 2°54.019 53.9 0.4 199 10.9
2011-10-17 07:36:40 51°16.204 2°54.02 59.4 0.3 135 10.9
2011-10-17 07:36:45 51°16.203 2°54.021 65.6 0.7 103 10.8
2011-10-17 07:36:49 51°16.203 2°54.024 71.9 1.1 97 10.8
2011-10-17 07:36:54 51°16.203 2°54.027 78.4 1.6 94 10.8
2011-10-17 07:36:59 51°16.203 2°54.032 84.2 2.2 97 10.8
2011-10-17 07:37:04 51°16.202 2°54.038 87.6 2.7 96 10.9
2011-10-17 07:37:09 51°16.202 2°54.045 89.4 3.2 96 10.9
2011-10-17 07:37:13 51°16.202 2°54.052 90.3 3.6 95 10.8
2011-10-17 07:37:17 51°16.201 2°54.059 89.7 3.9 92 10.9
2011-10-17 07:37:23 51°16.202 2°54.07 87.6 4.3 88 10.8
2011-10-17 07:37:28 51°16.202 2°54.08 84.8 4.6 84 10.7
2011-10-17 07:37:33 51°16.203 2°54.091 81.8 4.8 81 10.7
2011-10-17 07:37:37 51°16.204 2°54.099 78.7 5 79 10.7
2011-10-17 07:37:43 51°16.207 2°54.113 75.7 5.2 75 10.7
2011-10-17 07:37:48 51°16.209 2°54.124 73.5 5.4 72 10.8
2011-10-17 07:37:53 51°16.212 2°54.136 71.4 5.6 71 10.8
2011-10-17 07:37:58 51°16.215 2°54.148 69.5 5.8 69 10.8
2011-10-17 07:38:03 51°16.218 2°54.16 68.2 5.9 68 10.7
2011-10-17 07:38:08 51°16.221 2°54.173 67.4 6.1 67 10.8
2011-10-17 07:38:13 51°16.225 2°54.185 66.8 6.2 66 10.7
2011-10-17 07:38:17 51°16.227 2°54.195 66.7 6.3 68 10.8
2011-10-17 07:38:22 51°16.231 2°54.208 67.2 6.4 68 10.7
2011-10-17 07:38:28 51°16.235 2°54.224 67.9 6.5 69 10.8
2011-10-17 07:38:33 51°16.238 2°54.238 68.9 6.5 69 10.7
2011-10-17 07:38:38 51°16.241 2°54.252 69.9 6.6 71 10.7
2011-10-17 07:38:43 51°16.244 2°54.265 70.7 6.3 71 10.7
2011-10-17 07:38:48 51°16.246 2°54.277 71.3 6.1 71 10.7
2011-10-17 07:38:53 51°16.249 2°54.289 71.9 5.7 70 10.8
2011-10-17 07:38:57 51°16.251 2°54.298 71.5 5.4 69 10.8
2011-10-17 07:39:03 51°16.255 2°54.31 67.4 5 60 10.8
2011-10-17 07:39:08 51°16.259 2°54.318 61.3 4.6 55 10.7
2011-10-17 07:39:13 51°16.263 2°54.325 55.6 4.3 48 10.7
2011-10-17 07:39:18 51°16.267 2°54.331 50.6 4 43 10.8
2011-10-17 07:39:23 51°16.271 2°54.335 45.1 3.7 37 10.9
2011-10-17 07:39:28 51°16.276 2°54.339 40.3 3.5 30 10.9
2011-10-17 07:39:33 51°16.279 2°54.342 36.1 3.1 28 10.8
2011-10-17 07:39:38 51°16.283 2°54.344 33.6 2.7 22 10.7
2011-10-17 07:39:43 51°16.285 2°54.345 31.4 1.8 17 10.9
2011-10-17 07:39:48 51°16.287 2°54.345 27.9 1.1 358 10.8
2011-10-17 07:39:53 51°16.287 2°54.345 24 0.3 320 10.7
2011-10-17 07:39:57 51°16.287 2°54.344 18.2 0.6 249 10.8
2011-10-17 07:40:03 51°16.286 2°54.343 15.1 0.4 217 10.9
2011-10-17 07:40:08 51°16.286 2°54.342 13.7 0.6 241 10.7
2011-10-17 07:40:13 51°16.285 2°54.341 13.2 0.5 224 10.8
2011-10-17 07:40:17 51°16.285 2°54.34 13.5 0.6 237 10.7
2011-10-17 07:40:23 51°16.284 2°54.339 13.9 0.5 225 10.8
2011-10-17 07:40:28 51°16.284 2°54.338 14.8 0.5 235 10.8
2011-10-17 07:40:33 51°16.284 2°54.337 15.6 0.5 233 10.8
2011-10-17 07:40:38 51°16.283 2°54.336 16.7 0.5 236 10.8
2011-10-17 07:40:43 51°16.283 2°54.335 17.2 0.5 235 10.7
2011-10-17 07:40:48 51°16.282 2°54.334 18.3 0.5 236 10.8
2011-10-17 07:40:53 51°16.282 2°54.333 18.9 0.5 239 10.8
2011-10-17 07:40:57 51°16.282 2°54.333 19.5 0.5 233 10.9
2011-10-17 07:41:03 51°16.281 2°54.331 20.1 0.5 238 10.8
2011-10-17 07:41:08 51°16.281 2°54.33 20.6 0.5 240 10.8
2011-10-17 07:41:13 51°16.281 2°54.33 20.9 0.5 240 10.7
2011-10-17 07:41:18 51°16.281 2°54.329 21.4 0.4 235 10.9
2011-10-17 07:41:23 51°16.28 2°54.328 21.8 0.5 241 10.7
2011-10-17 07:41:28 51°16.28 2°54.327 22.2 0.4 240 10.8
2011-10-17 07:41:33 51°16.279 2°54.326 22.5 0.4 245 10.8
2011-10-17 07:41:37 51°16.279 2°54.326 22.6 0.4 238 10.7
2011-10-17 07:41:43 51°16.279 2°54.325 22.7 0.4 244 10.7
2011-10-17 07:41:48 51°16.279 2°54.324 22.7 0.4 247 10.8
2011-10-17 07:41:53 51°16.278 2°54.323 22.5 0.4 248 10.8
2011-10-17 07:41:57 51°16.278 2°54.323 22.2 0.4 244 10.7
2011-10-17 07:42:03 51°16.278 2°54.322 22.2 0.4 245 10.9
2011-10-17 07:42:08 51°16.277 2°54.321 21.9 0.4 243 10.8
2011-10-17 07:42:13 51°16.277 2°54.32 21.9 0.4 247 10.8
2011-10-17 07:42:17 51°16.277 2°54.32 21.4 0.4 245 10.8